createdAt,value
2023-01-26T00:01:23.888Z,40.08
2023-01-26T00:03:51.131Z,40.22
2023-01-26T00:06:20.050Z,40.47
2023-01-26T00:08:49.448Z,37.60
2023-01-26T00:11:19.739Z,33.28
2023-01-26T00:13:49.205Z,38.85
2023-01-26T00:16:16.615Z,36.25
2023-01-26T00:18:43.866Z,37.85
2023-01-26T00:21:28.928Z,36.80
2023-01-26T00:23:55.848Z,39.17
2023-01-26T00:26:25.739Z,32.90
2023-01-26T00:28:53.472Z,35.15
2023-01-26T00:31:22.836Z,32.50
2023-01-26T00:33:51.622Z,32.35
2023-01-26T00:36:18.573Z,40.47
2023-01-26T00:38:45.667Z,31.65
2023-01-26T00:41:32.698Z,29.95
2023-01-26T00:44:00.435Z,31.05
2023-01-26T00:46:27.771Z,28.63
2023-01-26T00:48:54.766Z,30.77
2023-01-26T00:51:21.589Z,34.92
2023-01-26T00:53:48.646Z,32.78
2023-01-26T00:56:15.516Z,38.92
2023-01-26T00:58:43.011Z,33.42
2023-01-26T01:01:11.515Z,34.40
2023-01-26T01:03:42.403Z,34.33
2023-01-26T01:06:09.325Z,32.60
2023-01-26T01:08:36.180Z,41.53
2023-01-26T01:11:08.218Z,33.53
2023-01-26T01:13:35.599Z,33.67
2023-01-26T01:16:10.319Z,38.65
2023-01-26T01:18:37.944Z,37.28
2023-01-26T01:21:12.798Z,35.90
2023-01-26T01:23:40.324Z,36.50
2023-01-26T01:26:08.827Z,35.17
2023-01-26T01:28:36.607Z,35.83
2023-01-26T01:31:08.579Z,36.50
2023-01-26T01:33:35.961Z,41.13
2023-01-26T01:36:14.172Z,36.55
2023-01-26T01:38:42.042Z,30.40
2023-01-26T01:41:10.387Z,28.27
2023-01-26T01:43:37.917Z,32.55
2023-01-26T01:46:20.312Z,32.13
2023-01-26T01:49:04.557Z,27.67
2023-01-26T01:51:38.543Z,31.27
2023-01-26T01:54:10.821Z,39.17
2023-01-26T01:56:41.042Z,29.02
2023-01-26T01:59:11.464Z,29.77
2023-01-26T02:01:38.353Z,42.47
2023-01-26T02:04:07.007Z,30.33
2023-01-26T02:06:43.642Z,31.10
2023-01-26T02:09:31.329Z,28.45
2023-01-26T02:12:00.133Z,28.83
2023-01-26T02:14:27.746Z,38.97
2023-01-26T02:16:54.507Z,43.63
2023-01-26T02:19:34.535Z,35.05
2023-01-26T02:22:10.817Z,34.72
2023-01-26T02:24:40.174Z,29.25
2023-01-26T02:27:07.344Z,39.08
2023-01-26T02:29:34.605Z,45.58
2023-01-26T02:32:01.442Z,37.50
2023-01-26T02:34:28.911Z,35.65
2023-01-26T02:37:01.055Z,43.55
2023-01-26T02:39:43.521Z,42.17
2023-01-26T02:42:28.795Z,38.25
2023-01-26T02:44:56.064Z,49.70
2023-01-26T02:47:22.947Z,42.45
2023-01-26T02:49:52.902Z,47.45
2023-01-26T02:52:27.326Z,38.35
2023-01-26T02:55:28.576Z,47.50
2023-01-26T02:58:04.059Z,38.88
2023-01-26T03:00:41.866Z,32.92
2023-01-26T03:03:23.401Z,31.58
2023-01-26T03:05:51.272Z,32.38
2023-01-26T03:08:18.684Z,28.10
2023-01-26T03:10:47.568Z,30.45
2023-01-26T03:13:14.885Z,29.35
2023-01-26T03:15:52.592Z,27.27
2023-01-26T03:18:41.546Z,31.60
2023-01-26T03:21:33.328Z,30.08
2023-01-26T03:24:20.451Z,28.67
2023-01-26T03:27:07.122Z,28.77
2023-01-26T03:29:34.696Z,24.60
2023-01-26T03:32:03.584Z,28.00
2023-01-26T03:34:31.158Z,26.55
2023-01-26T03:36:58.994Z,24.40
2023-01-26T03:39:48.560Z,24.30
2023-01-26T03:42:34.193Z,26.98
2023-01-26T03:45:19.784Z,30.23
2023-01-26T03:48:07.077Z,24.38
2023-01-26T03:50:52.875Z,31.20
2023-01-26T03:53:42.406Z,29.67
2023-01-26T03:56:32.683Z,27.77
2023-01-26T03:59:09.148Z,29.17
2023-01-26T04:01:41.770Z,24.25
2023-01-26T04:04:29.426Z,23.75
2023-01-26T04:07:15.140Z,28.08
2023-01-26T04:09:47.627Z,31.67
2023-01-26T04:12:14.400Z,28.50
2023-01-26T04:15:21.525Z,27.27
2023-01-26T04:18:07.038Z,24.30
2023-01-26T04:20:53.396Z,24.27
2023-01-26T04:23:21.207Z,24.52
2023-01-26T04:25:50.157Z,21.58
2023-01-26T04:28:17.510Z,24.88
2023-01-26T04:30:45.724Z,28.75
2023-01-26T04:33:12.607Z,27.23
2023-01-26T04:35:40.439Z,23.05
2023-01-26T04:38:07.544Z,22.25
2023-01-26T04:40:35.610Z,22.52
2023-01-26T04:43:02.816Z,23.67
2023-01-26T04:45:29.639Z,20.35
2023-01-26T04:47:57.088Z,18.83
2023-01-26T04:50:27.760Z,17.75
2023-01-26T04:52:54.665Z,22.10
2023-01-26T04:55:21.766Z,20.73
2023-01-26T04:57:48.657Z,24.40
2023-01-26T05:00:15.901Z,20.80
2023-01-26T05:02:44.002Z,21.58
2023-01-26T05:05:11.720Z,19.30
2023-01-26T05:07:39.232Z,17.27
2023-01-26T05:10:06.557Z,16.20
2023-01-26T05:12:43.575Z,18.73
2023-01-26T05:15:34.086Z,18.02
2023-01-26T05:18:06.763Z,16.65
2023-01-26T05:20:57.257Z,16.35
2023-01-26T05:23:29.205Z,17.98
2023-01-26T05:26:11.333Z,15.90
2023-01-26T05:28:55.698Z,15.40
2023-01-26T05:31:22.915Z,16.83
2023-01-26T05:33:50.431Z,15.65
2023-01-26T05:36:21.727Z,17.63
2023-01-26T05:38:49.029Z,17.48
2023-01-26T05:41:19.684Z,18.63
2023-01-26T05:43:59.112Z,15.60
2023-01-26T05:46:43.881Z,18.55
2023-01-26T05:49:10.990Z,24.88
2023-01-26T05:51:37.879Z,18.45
2023-01-26T05:54:07.001Z,20.15
2023-01-26T05:56:34.815Z,23.88
2023-01-26T05:59:07.246Z,19.83
2023-01-26T06:01:34.663Z,20.42
2023-01-26T06:04:05.467Z,20.02
2023-01-26T06:06:41.609Z,21.08
2023-01-26T06:09:20.860Z,21.38
2023-01-26T06:12:05.798Z,18.75
2023-01-26T06:14:51.753Z,19.80
2023-01-26T06:17:18.845Z,19.77
2023-01-26T06:19:47.946Z,21.05
2023-01-26T06:22:15.148Z,17.17
2023-01-26T06:24:46.705Z,20.40
2023-01-26T06:27:15.593Z,17.38
2023-01-26T06:29:44.628Z,18.08
2023-01-26T06:32:13.530Z,17.30
2023-01-26T06:34:42.375Z,16.80
2023-01-26T06:37:10.266Z,20.17
2023-01-26T06:39:41.746Z,16.25
2023-01-26T06:42:09.576Z,17.73
2023-01-26T06:44:37.995Z,20.35
2023-01-26T06:47:05.995Z,18.95
2023-01-26T06:49:33.921Z,17.75
2023-01-26T06:52:22.869Z,19.08
2023-01-26T06:54:54.272Z,21.55
2023-01-26T06:57:26.956Z,19.52
2023-01-26T07:00:29.285Z,22.10
2023-01-26T07:03:12.915Z,21.40
2023-01-26T07:05:39.776Z,21.08
2023-01-26T07:08:08.678Z,20.42
2023-01-26T07:10:38.796Z,22.73
2023-01-26T07:13:06.863Z,23.27
2023-01-26T07:15:33.791Z,19.50
2023-01-26T07:18:01.255Z,18.92
2023-01-26T07:20:28.395Z,16.83
2023-01-26T07:22:55.167Z,18.90
2023-01-26T07:25:22.061Z,18.17
2023-01-26T07:27:48.840Z,16.50
2023-01-26T07:30:16.199Z,22.42
2023-01-26T07:32:43.031Z,17.75
2023-01-26T07:35:10.060Z,19.83
2023-01-26T07:37:36.910Z,17.85
2023-01-26T07:40:04.294Z,17.17
2023-01-26T07:42:31.123Z,19.38
2023-01-26T07:45:09.462Z,17.27
2023-01-26T07:47:39.278Z,20.65
2023-01-26T07:50:07.232Z,20.65
2023-01-26T07:52:34.114Z,20.08
2023-01-26T07:55:00.975Z,19.48
2023-01-26T07:57:27.935Z,19.67
2023-01-26T07:59:54.789Z,15.52
2023-01-26T08:02:21.633Z,15.07
2023-01-26T08:04:49.228Z,17.40
2023-01-26T08:07:16.221Z,14.00
2023-01-26T08:09:43.045Z,18.75
2023-01-26T08:12:09.876Z,16.88
2023-01-26T08:14:46.351Z,23.15
2023-01-26T08:17:17.206Z,17.88
2023-01-26T08:19:48.624Z,14.80
2023-01-26T08:22:15.441Z,18.00
2023-01-26T08:24:42.265Z,18.45
2023-01-26T08:27:09.063Z,19.15
2023-01-26T08:29:36.132Z,15.85
2023-01-26T08:32:03.034Z,15.25
2023-01-26T08:34:29.934Z,15.90
2023-01-26T08:36:56.761Z,15.15
2023-01-26T08:39:23.665Z,16.52
2023-01-26T08:41:50.589Z,14.75
2023-01-26T08:44:17.391Z,11.30
2023-01-26T08:46:44.533Z,12.75
2023-01-26T08:49:14.642Z,14.68
2023-01-26T08:51:41.453Z,15.50
2023-01-26T08:54:08.508Z,15.63
2023-01-26T08:56:35.568Z,14.63
2023-01-26T08:59:02.690Z,10.27
2023-01-26T09:01:29.522Z,11.82
2023-01-26T09:03:56.552Z,9.68
2023-01-26T09:06:23.414Z,11.70
2023-01-26T09:08:50.571Z,10.93
2023-01-26T09:11:17.391Z,10.25
2023-01-26T09:13:44.235Z,11.32
2023-01-26T09:16:19.409Z,12.35
2023-01-26T09:18:50.091Z,12.35
2023-01-26T09:21:17.493Z,10.82
2023-01-26T09:23:44.337Z,8.93
2023-01-26T09:26:11.663Z,8.40
2023-01-26T09:28:38.727Z,8.93
2023-01-26T09:31:08.412Z,10.73
2023-01-26T09:33:35.340Z,7.22
2023-01-26T09:36:07.877Z,9.50
2023-01-26T09:38:34.706Z,10.20
2023-01-26T09:41:20.581Z,8.55
2023-01-26T09:44:09.388Z,8.77
2023-01-26T09:46:56.424Z,7.35
2023-01-26T09:49:57.503Z,5.90
2023-01-26T09:52:39.368Z,12.48
2023-01-26T09:55:15.787Z,7.70
2023-01-26T09:58:04.869Z,7.97
2023-01-26T10:00:47.318Z,7.00
2023-01-26T10:03:32.180Z,7.70
2023-01-26T10:05:58.987Z,6.43
2023-01-26T10:08:44.789Z,8.25
2023-01-26T10:11:16.654Z,9.25
2023-01-26T10:13:50.629Z,10.02
2023-01-26T10:16:17.625Z,8.93
2023-01-26T10:18:54.212Z,8.00
2023-01-26T10:21:25.021Z,8.15
2023-01-26T10:23:52.774Z,7.25
2023-01-26T10:26:22.575Z,6.63
2023-01-26T10:28:52.046Z,6.75
2023-01-26T10:31:24.887Z,7.95
2023-01-26T10:34:10.809Z,7.72
2023-01-26T10:36:37.716Z,7.93
2023-01-26T10:39:15.378Z,6.70
2023-01-26T10:41:58.048Z,6.65
2023-01-26T10:44:37.069Z,10.88
2023-01-26T10:47:18.614Z,14.95
2023-01-26T10:49:45.751Z,14.63
2023-01-26T10:52:17.745Z,11.60
2023-01-26T10:54:46.345Z,7.65
2023-01-26T10:57:32.539Z,7.90
2023-01-26T11:00:08.470Z,9.25
2023-01-26T11:02:36.661Z,8.05
2023-01-26T11:05:09.701Z,8.77
2023-01-26T11:07:39.089Z,9.38
2023-01-26T11:10:25.162Z,9.57
2023-01-26T11:13:06.850Z,9.20
2023-01-26T11:15:39.605Z,9.38
2023-01-26T11:18:13.530Z,8.98
2023-01-26T11:20:40.309Z,10.55
2023-01-26T11:23:16.192Z,12.43
2023-01-26T11:26:20.210Z,12.23
2023-01-26T11:29:09.423Z,11.77
2023-01-26T11:32:14.190Z,10.82
2023-01-26T11:34:55.975Z,8.50
2023-01-26T11:37:49.417Z,13.18
2023-01-26T11:40:47.188Z,11.18
2023-01-26T11:44:00.453Z,9.80
2023-01-26T11:46:36.385Z,11.18
2023-01-26T11:49:21.577Z,10.80
2023-01-26T11:52:12.309Z,13.05
2023-01-26T11:54:55.991Z,13.02
2023-01-26T11:57:36.077Z,13.43
2023-01-26T12:00:29.476Z,11.90
2023-01-26T12:03:03.592Z,16.63
2023-01-26T12:05:54.073Z,15.40
2023-01-26T12:08:38.247Z,13.02
2023-01-26T12:11:24.031Z,14.35
2023-01-26T12:14:03.031Z,13.05
2023-01-26T12:16:36.608Z,16.90
2023-01-26T12:19:11.547Z,17.38
2023-01-26T12:21:43.736Z,18.08
2023-01-26T12:24:54.125Z,12.38
2023-01-26T12:27:29.589Z,14.70
2023-01-26T12:30:18.505Z,13.20
2023-01-26T12:32:45.374Z,14.13
2023-01-26T12:35:13.852Z,14.25
2023-01-26T12:37:49.345Z,10.15
2023-01-26T12:40:39.397Z,13.82
2023-01-26T12:43:35.835Z,14.52
2023-01-26T12:46:05.730Z,12.32
2023-01-26T12:48:39.265Z,12.13
2023-01-26T12:51:11.679Z,14.25
2023-01-26T12:54:21.426Z,13.77
2023-01-26T12:56:55.424Z,10.80
2023-01-26T12:59:47.961Z,12.77
2023-01-26T13:02:15.804Z,14.65
2023-01-26T13:04:46.597Z,12.00
2023-01-26T13:07:33.103Z,11.25
2023-01-26T13:10:16.238Z,11.75
2023-01-26T13:13:00.145Z,11.93
2023-01-26T13:15:29.759Z,11.45
2023-01-26T13:18:03.051Z,11.68
2023-01-26T13:20:45.535Z,16.15
2023-01-26T13:23:39.664Z,15.05
2023-01-26T13:26:41.496Z,12.85
2023-01-26T13:29:36.165Z,12.15
2023-01-26T13:32:23.449Z,13.90
2023-01-26T13:34:59.185Z,10.52
2023-01-26T13:37:41.305Z,13.48
2023-01-26T13:40:32.099Z,11.85
2023-01-26T13:43:11.752Z,13.35
2023-01-26T13:46:09.122Z,11.95
2023-01-26T13:48:46.616Z,11.52
2023-01-26T13:51:20.996Z,13.82
2023-01-26T13:54:01.449Z,11.57
2023-01-26T13:56:34.290Z,12.63
2023-01-26T13:59:10.736Z,12.60
2023-01-26T14:01:57.374Z,12.50
2023-01-26T14:04:30.056Z,13.00
2023-01-26T14:07:03.634Z,15.15
2023-01-26T14:09:33.871Z,15.45
2023-01-26T14:12:03.782Z,10.95
2023-01-26T14:14:34.899Z,12.32
2023-01-26T14:17:07.912Z,11.95
2023-01-26T14:19:41.350Z,16.45
2023-01-26T14:22:13.484Z,15.35
2023-01-26T14:24:41.329Z,14.88
2023-01-26T14:27:31.776Z,17.08
2023-01-26T14:29:59.055Z,16.42
2023-01-26T14:32:29.417Z,14.90
2023-01-26T14:34:59.112Z,16.52
2023-01-26T14:37:27.136Z,16.08
2023-01-26T14:40:20.978Z,16.70
2023-01-26T14:42:50.377Z,17.15
2023-01-26T14:45:18.373Z,15.88
2023-01-26T14:47:45.401Z,16.08
2023-01-26T14:50:20.756Z,17.20
2023-01-26T14:52:49.040Z,16.05
2023-01-26T14:55:22.320Z,15.85
2023-01-26T14:57:49.478Z,15.57
2023-01-26T15:00:20.572Z,15.70
2023-01-26T15:02:49.123Z,17.08
2023-01-26T15:05:22.258Z,15.55
2023-01-26T15:07:58.938Z,19.90
2023-01-26T15:11:17.109Z,20.05
2023-01-26T15:13:52.258Z,20.13
2023-01-26T15:16:26.113Z,18.70
2023-01-26T15:19:09.289Z,26.52
2023-01-26T15:21:40.080Z,25.10
2023-01-26T15:24:13.828Z,18.60
2023-01-26T15:26:41.581Z,21.50
2023-01-26T15:29:24.684Z,22.67
2023-01-26T15:31:54.445Z,20.30
2023-01-26T15:34:47.673Z,21.40
2023-01-26T15:37:32.556Z,22.63
2023-01-26T15:40:00.023Z,22.63
2023-01-26T15:42:30.316Z,24.65
2023-01-26T15:44:57.557Z,21.90
2023-01-26T15:47:24.573Z,24.40
2023-01-26T15:49:51.794Z,24.17
2023-01-26T15:52:21.240Z,19.75
2023-01-26T15:54:48.085Z,19.27
2023-01-26T15:57:17.568Z,20.10
2023-01-26T15:59:44.514Z,18.60
2023-01-26T16:02:17.547Z,22.02
2023-01-26T16:04:45.518Z,18.90
2023-01-26T16:07:14.730Z,21.23
2023-01-26T16:09:43.097Z,23.83
2023-01-26T16:12:31.089Z,28.00
2023-01-26T16:14:59.001Z,21.95
2023-01-26T16:17:25.806Z,21.67
2023-01-26T16:19:53.209Z,23.73
2023-01-26T16:22:20.044Z,21.15
2023-01-26T16:24:48.399Z,29.67
2023-01-26T16:27:15.373Z,28.08
2023-01-26T16:29:42.335Z,23.23
2023-01-26T16:32:28.234Z,24.35
2023-01-26T16:34:55.397Z,24.67
2023-01-26T16:37:22.296Z,20.95
2023-01-26T16:39:49.157Z,22.17
2023-01-26T16:42:19.199Z,18.88
2023-01-26T16:44:46.538Z,19.60
2023-01-26T16:47:13.476Z,21.70
2023-01-26T16:49:40.299Z,21.42
2023-01-26T16:52:09.269Z,20.90
2023-01-26T16:54:36.221Z,22.33
2023-01-26T16:57:03.101Z,20.15
2023-01-26T16:59:29.871Z,22.85
2023-01-26T17:01:57.199Z,22.05
2023-01-26T17:04:24.115Z,22.90
2023-01-26T17:06:51.818Z,23.55
2023-01-26T17:09:20.689Z,21.75
2023-01-26T17:11:47.619Z,25.83
2023-01-26T17:14:14.408Z,28.48
2023-01-26T17:16:41.278Z,31.00
2023-01-26T17:19:09.421Z,28.52
2023-01-26T17:21:36.664Z,37.20
2023-01-26T17:24:04.053Z,35.45
2023-01-26T17:26:30.972Z,27.50
2023-01-26T17:28:57.766Z,23.70
2023-01-26T17:31:25.065Z,35.17
2023-01-26T17:33:51.966Z,33.00
2023-01-26T17:36:20.213Z,32.95
2023-01-26T17:38:48.365Z,29.52
2023-01-26T17:41:16.060Z,28.25
2023-01-26T17:43:43.787Z,28.55
2023-01-26T17:46:13.504Z,27.88
2023-01-26T17:48:40.732Z,27.10
2023-01-26T17:51:09.967Z,26.98
2023-01-26T17:53:41.167Z,23.83
2023-01-26T17:56:10.562Z,26.13
2023-01-26T17:58:38.600Z,24.83
2023-01-26T18:01:09.833Z,26.98
2023-01-26T18:03:41.043Z,23.52
2023-01-26T18:06:08.224Z,24.27
2023-01-26T18:08:37.132Z,21.65
2023-01-26T18:11:06.234Z,25.70
2023-01-26T18:13:33.566Z,21.70
2023-01-26T18:16:00.448Z,23.27
2023-01-26T18:18:29.383Z,24.42
2023-01-26T18:20:56.550Z,23.83
2023-01-26T18:23:24.743Z,20.20
2023-01-26T18:25:51.798Z,22.92
2023-01-26T18:28:18.814Z,20.80
2023-01-26T18:30:45.830Z,21.25
2023-01-26T18:33:12.763Z,21.67
2023-01-26T18:35:40.512Z,22.45
2023-01-26T18:38:07.353Z,19.88
2023-01-26T18:40:34.349Z,25.52
2023-01-26T18:43:01.982Z,20.95
2023-01-26T18:45:28.753Z,23.88
2023-01-26T18:47:55.538Z,20.67
2023-01-26T18:50:22.882Z,25.02
2023-01-26T18:52:49.681Z,21.65
2023-01-26T18:55:16.899Z,20.52
2023-01-26T18:57:43.679Z,24.45
2023-01-26T19:00:11.597Z,26.20
2023-01-26T19:02:38.546Z,21.80
2023-01-26T19:05:08.785Z,25.35
2023-01-26T19:07:35.741Z,19.98
2023-01-26T19:10:05.006Z,23.35
2023-01-26T19:12:31.902Z,23.13
2023-01-26T19:14:58.799Z,21.75
2023-01-26T19:17:26.110Z,20.77
2023-01-26T19:19:53.100Z,22.25
2023-01-26T19:22:20.444Z,19.98
2023-01-26T19:24:47.264Z,22.02
2023-01-26T19:27:14.087Z,24.85
2023-01-26T19:29:40.936Z,25.40
2023-01-26T19:32:07.843Z,26.38
2023-01-26T19:34:35.176Z,24.30
2023-01-26T19:37:02.130Z,24.48
2023-01-26T19:39:30.156Z,23.98
2023-01-26T19:41:57.064Z,23.30
2023-01-26T19:44:24.129Z,21.75
2023-01-26T19:46:52.184Z,24.42
2023-01-26T19:49:20.137Z,26.55
2023-01-26T19:51:47.742Z,21.80
2023-01-26T19:54:14.924Z,23.65
2023-01-26T19:56:41.887Z,20.73
2023-01-26T19:59:11.405Z,24.25
2023-01-26T20:01:38.458Z,20.73
2023-01-26T20:04:09.144Z,22.55
2023-01-26T20:06:37.016Z,20.52
2023-01-26T20:09:06.003Z,21.70
2023-01-26T20:11:34.672Z,23.33
2023-01-26T20:14:04.686Z,20.80
2023-01-26T20:16:31.956Z,19.08
2023-01-26T20:18:59.611Z,22.48
2023-01-26T20:21:28.162Z,19.48
2023-01-26T20:23:56.135Z,19.08
2023-01-26T20:26:25.460Z,18.73
2023-01-26T20:28:53.741Z,17.50
2023-01-26T20:31:23.777Z,20.73
2023-01-26T20:33:53.481Z,22.27
2023-01-26T20:36:23.423Z,22.85
2023-01-26T20:38:50.427Z,24.23
2023-01-26T20:41:21.950Z,22.63
2023-01-26T20:43:59.213Z,19.05
2023-01-26T20:46:29.885Z,23.45
2023-01-26T20:48:57.024Z,20.85
2023-01-26T20:51:30.640Z,22.17
2023-01-26T20:53:58.392Z,19.48
2023-01-26T20:56:25.697Z,22.80
2023-01-26T20:58:54.139Z,21.05
2023-01-26T21:01:22.555Z,20.48
2023-01-26T21:03:49.606Z,21.02
2023-01-26T21:06:20.821Z,21.73
2023-01-26T21:08:54.031Z,21.92
2023-01-26T21:11:22.794Z,17.95
2023-01-26T21:13:49.814Z,20.23
2023-01-26T21:16:17.511Z,19.38
2023-01-26T21:18:46.018Z,19.10
2023-01-26T21:21:17.551Z,18.10
2023-01-26T21:23:45.168Z,21.88
2023-01-26T21:26:14.675Z,20.25
2023-01-26T21:28:41.575Z,20.52
2023-01-26T21:31:09.640Z,23.42
2023-01-26T21:33:39.587Z,20.80
2023-01-26T21:36:09.333Z,19.40
2023-01-26T21:38:39.360Z,20.25
2023-01-26T21:41:29.052Z,23.27
2023-01-26T21:44:03.668Z,22.48
2023-01-26T21:46:30.975Z,19.40
2023-01-26T21:48:58.745Z,19.00
2023-01-26T21:51:45.310Z,19.00
2023-01-26T21:54:13.242Z,19.30
2023-01-26T21:56:40.486Z,20.98
2023-01-26T21:59:11.303Z,22.27
2023-01-26T22:01:46.244Z,20.77
2023-01-26T22:04:16.250Z,23.13
2023-01-26T22:06:43.484Z,21.38
2023-01-26T22:09:12.689Z,22.25
2023-01-26T22:11:39.948Z,19.17
2023-01-26T22:14:09.231Z,21.45
2023-01-26T22:16:36.201Z,18.35
2023-01-26T22:19:03.695Z,18.88
2023-01-26T22:21:31.210Z,20.98
2023-01-26T22:23:58.201Z,21.02
2023-01-26T22:26:25.220Z,18.65
2023-01-26T22:28:56.907Z,18.13
2023-01-26T22:31:27.006Z,18.23
2023-01-26T22:33:55.479Z,19.08
2023-01-26T22:36:22.775Z,19.67
2023-01-26T22:38:50.453Z,17.38
2023-01-26T22:41:20.556Z,14.95
2023-01-26T22:43:52.338Z,17.67
2023-01-26T22:46:20.734Z,19.73
2023-01-26T22:48:47.943Z,18.33
2023-01-26T22:51:18.294Z,18.80
2023-01-26T22:53:45.653Z,17.13
2023-01-26T22:56:12.716Z,22.63
2023-01-26T22:58:55.563Z,17.65
2023-01-26T23:01:24.995Z,16.08
2023-01-26T23:03:54.134Z,15.73
2023-01-26T23:06:21.668Z,13.82
2023-01-26T23:08:48.554Z,10.82
2023-01-26T23:11:22.139Z,10.77
2023-01-26T23:13:50.871Z,10.32
2023-01-26T23:16:18.197Z,13.77
2023-01-26T23:18:45.153Z,11.20
2023-01-26T23:21:12.748Z,12.57
2023-01-26T23:23:40.767Z,12.15
2023-01-26T23:26:09.119Z,13.40
2023-01-26T23:28:38.492Z,13.52
2023-01-26T23:31:05.554Z,13.60
2023-01-26T23:33:34.678Z,10.38
2023-01-26T23:36:02.162Z,10.40
2023-01-26T23:38:30.602Z,9.88
2023-01-26T23:41:00.285Z,9.48
2023-01-26T23:43:28.237Z,10.63
2023-01-26T23:45:56.632Z,11.35
2023-01-26T23:48:24.885Z,12.45
2023-01-26T23:50:56.822Z,13.73
2023-01-26T23:53:24.179Z,13.73
2023-01-26T23:55:51.300Z,15.27
2023-01-26T23:58:18.909Z,14.90
